Time;durP1;ratioP1;P1;durP2;ratioP2;P2;SDS_P1;SDS_P2;PMS_P1;PMS_P2;Temp;Humidity;BMP_temperature;BMP_pressure;BME280_temperature;BME280_humidity;BME280_pressure;Samples;Min_cycle;Max_cycle;Signal;HPM_P1;HPM_P2
2021/08/28 11:18:34;;;;;;;11.68;5.85;;;27.90;58.90;;;;;;5099707;27;1415958;-70
2021/08/28 11:21:08;;;;;;;14.57;5.90;;;28.20;57.40;;;;;;5096299;28;20068;-72
2021/08/28 11:23:41;;;;;;;10.77;5.97;;;28.10;56.10;;;;;;5110580;28;20372;-75
2021/08/28 11:26:07;;;;;;;16.90;5.35;;;28.20;55.40;;;;;;5110087;28;20120;-71
2021/08/28 11:28:41;;;;;;;12.68;5.88;;;28.20;55.20;;;;;;5110483;28;20054;-73
2021/08/28 11:31:08;;;;;;;10.85;5.15;;;28.20;54.60;;;;;;5092240;28;20024;-73
2021/08/28 11:33:36;;;;;;;12.95;5.65;;;28.30;54.70;;;;;;5110229;28;20016;-72
2021/08/28 11:36:05;;;;;;;19.35;5.57;;;28.30;54.50;;;;;;5109959;28;20095;-71
2021/08/28 11:38:33;;;;;;;13.88;6.55;;;28.40;54.40;;;;;;5110000;28;20020;-70
2021/08/28 11:41:03;;;;;;;13.85;5.90;;;28.50;54.80;;;;;;5110096;28;20028;-70
2021/08/28 11:43:37;;;;;;;12.68;6.32;;;28.60;54.90;;;;;;5099456;28;20118;-70
2021/08/28 11:46:15;;;;;;;14.05;6.43;;;28.60;54.60;;;;;;5130300;28;20023;-70
2021/08/28 11:48:43;;;;;;;13.95;6.32;;;28.60;55.60;;;;;;5131558;28;20023;-70
2021/08/28 11:51:16;;;;;;;21.92;7.07;;;28.60;54.90;;;;;;5130988;28;20023;-71
2021/08/28 11:53:43;;;;;;;14.27;6.82;;;28.40;55.40;;;;;;5130553;28;20087;-72
2021/08/28 11:56:16;;;;;;;16.98;6.93;;;28.40;55.40;;;;;;5130512;28;20023;-71
2021/08/28 11:58:58;;;;;;;15.15;6.07;;;28.50;54.40;;;;;;5130488;28;20019;-72
2021/08/28 12:01:26;;;;;;;17.92;6.28;;;28.70;54.10;;;;;;5129703;28;20107;-69
2021/08/28 12:03:52;;;;;;;14.55;5.68;;;28.90;54.10;;;;;;5130568;28;20051;-72
2021/08/28 12:06:18;;;;;;;17.48;5.95;;;29.10;53.90;;;;;;5130117;28;20070;-71
2021/08/28 12:08:44;;;;;;;11.32;5.60;;;29.30;53.70;;;;;;5130320;28;20099;-69
2021/08/28 12:11:10;;;;;;;14.20;5.55;;;29.30;53.30;;;;;;5129736;28;20069;-72
2021/08/28 12:14:04;;;;;;;13.48;5.97;;;29.50;53.10;;;;;;5130124;28;20024;-71
2021/08/28 12:16:37;;;;;;;13.05;5.47;;;29.40;51.40;;;;;;5129917;28;20027;-72
2021/08/28 12:19:16;;;;;;;22.08;6.07;;;29.30;51.90;;;;;;5116445;28;20055;-71
2021/08/28 12:22:04;;;;;;;18.80;5.55;;;29.30;51.90;;;;;;5112200;28;20065;-71
2021/08/28 12:24:31;;;;;;;11.38;4.97;;;29.20;51.80;;;;;;5095540;28;20036;-72
2021/08/28 12:26:58;;;;;;;13.43;4.97;;;29.20;52.00;;;;;;5095403;28;20039;-72
2021/08/28 12:29:28;;;;;;;10.65;4.90;;;29.30;52.00;;;;;;5095768;28;20021;-70
2021/08/28 12:31:58;;;;;;;13.07;5.57;;;29.50;51.60;;;;;;5095938;28;20024;-72
2021/08/28 12:34:26;;;;;;;16.20;4.93;;;29.60;50.90;;;;;;5112944;28;20058;-72
2021/08/28 12:36:52;;;;;;;11.20;4.78;;;29.60;51.30;;;;;;5116090;28;20065;-71
2021/08/28 12:39:18;;;;;;;13.00;5.15;;;29.70;50.60;;;;;;5094044;28;20395;-70
2021/08/28 12:41:45;;;;;;;13.18;4.88;;;29.60;50.50;;;;;;5094065;28;20028;-72
2021/08/28 12:44:12;;;;;;;13.02;5.05;;;29.70;51.00;;;;;;5107706;28;20475;-71
2021/08/28 12:46:44;;;;;;;15.40;5.03;;;29.70;50.80;;;;;;5115403;28;20048;-72
2021/08/28 12:49:12;;;;;;;14.43;5.20;;;29.70;50.70;;;;;;5109910;28;20055;-72
2021/08/28 12:51:52;;;;;;;15.85;4.93;;;29.70;50.60;;;;;;5102707;28;20472;-71
2021/08/28 12:54:25;;;;;;;18.02;8.60;;;29.70;49.20;;;;;;5105930;28;20036;-70
2021/08/28 12:56:55;;;;;;;15.38;5.85;;;29.80;48.60;;;;;;5116421;28;20099;-72
2021/08/28 12:59:22;;;;;;;10.30;4.60;;;29.80;50.30;;;;;;5115766;28;20023;-72
2021/08/28 13:01:53;;;;;;;12.50;4.40;;;29.70;49.80;;;;;;5115765;28;20488;-72
2021/08/28 13:04:20;;;;;;;13.05;4.50;;;29.80;49.70;;;;;;5115710;28;20499;-71
2021/08/28 13:07:08;;;;;;;13.50;4.80;;;29.70;50.20;;;;;;5115164;28;20043;-70
2021/08/28 13:09:46;;;;;;;13.95;4.45;;;29.70;48.90;;;;;;5115695;28;20015;-75
2021/08/28 13:12:12;;;;;;;13.15;5.20;;;29.70;49.00;;;;;;5115652;28;20498;-71
2021/08/28 13:14:52;;;;;;;8.82;4.38;;;29.80;50.10;;;;;;5115125;28;20024;-71
2021/08/28 13:17:25;;;;;;;10.98;5.07;;;29.80;48.00;;;;;;5094985;28;20028;-69
2021/08/28 13:20:09;;;;;;;13.25;4.65;;;29.90;49.20;;;;;;5095076;28;20043;-71
2021/08/28 13:22:39;;;;;;;9.05;4.32;;;30.00;47.60;;;;;;5094910;28;20124;-71
2021/08/28 13:25:07;;;;;;;13.30;4.65;;;30.10;49.60;;;;;;5095355;28;20056;-70
2021/08/28 13:27:41;;;;;;;13.50;5.25;;;30.20;49.00;;;;;;5110092;28;20040;-69
2021/08/28 13:30:21;;;;;;;12.13;4.88;;;30.20;49.20;;;;;;5102388;28;20166;-70
2021/08/28 13:33:04;;;;;;;16.48;5.03;;;30.20;49.00;;;;;;5103191;28;20020;-70
2021/08/28 13:35:39;;;;;;;12.75;3.50;;;30.10;48.30;;;;;;5103329;28;20020;-71
2021/08/28 13:38:11;;;;;;;7.70;3.17;;;29.90;50.20;;;;;;5110989;28;20077;-69
2021/08/28 13:40:37;;;;;;;7.47;3.65;;;29.60;50.60;;;;;;5099480;28;20115;-71
2021/08/28 13:43:04;;;;;;;11.60;3.22;;;29.50;50.80;;;;;;5101927;28;20024;-69
2021/08/28 13:45:30;;;;;;;9.07;3.00;;;29.40;51.00;;;;;;5093958;28;20385;-68
2021/08/28 13:47:56;;;;;;;7.60;2.90;;;29.10;51.50;;;;;;5112837;28;20100;-70
2021/08/28 13:50:22;;;;;;;7.97;2.95;;;28.90;51.70;;;;;;5113945;28;20021;-73
2021/08/28 13:52:49;;;;;;;7.97;3.20;;;28.80;51.90;;;;;;5114484;28;20024;-71
2021/08/28 13:55:16;;;;;;;5.95;3.20;;;28.80;52.30;;;;;;5114254;28;20016;-71
2021/08/28 13:57:43;;;;;;;8.38;3.33;;;28.60;52.40;;;;;;5095519;28;20050;-71
2021/08/28 14:00:10;;;;;;;6.32;2.85;;;28.50;52.50;;;;;;5114215;28;20026;-71
2021/08/28 14:02:36;;;;;;;9.60;2.90;;;28.50;52.80;;;;;;5095741;28;20480;-72
2021/08/28 14:05:05;;;;;;;9.85;3.10;;;28.30;53.20;;;;;;5114073;28;20054;-70
2021/08/28 14:07:31;;;;;;;9.95;3.30;;;28.10;53.50;;;;;;5095488;28;20032;-72
2021/08/28 14:09:58;;;;;;;9.73;2.95;;;28.10;53.50;;;;;;5113726;28;20099;-70
2021/08/28 14:12:27;;;;;;;8.98;3.03;;;28.00;53.30;;;;;;5114037;28;20376;-71
2021/08/28 14:14:54;;;;;;;7.28;2.70;;;27.80;54.40;;;;;;5113997;28;20054;-72
2021/08/28 14:17:20;;;;;;;7.85;3.03;;;27.80;53.90;;;;;;5113779;28;20108;-72
2021/08/28 14:19:46;;;;;;;6.13;2.58;;;27.80;53.80;;;;;;5114125;28;20118;-73
2021/08/28 14:22:11;;;;;;;7.63;2.70;;;27.80;54.50;;;;;;5113970;28;20439;-73
2021/08/28 14:24:37;;;;;;;9.20;3.20;;;27.80;54.50;;;;;;5113819;28;20023;-72
2021/08/28 14:27:03;;;;;;;7.88;3.15;;;27.70;54.60;;;;;;5113678;28;20482;-71
2021/08/28 14:29:34;;;;;;;5.43;2.60;;;27.80;54.60;;;;;;5113175;28;20023;-71
2021/08/28 14:32:00;;;;;;;8.30;2.95;;;27.80;54.30;;;;;;5114128;28;20055;-71
2021/08/28 14:34:26;;;;;;;11.60;3.20;;;27.70;54.40;;;;;;5114021;28;20492;-71
2021/08/28 14:36:52;;;;;;;5.70;2.78;;;27.70;54.30;;;;;;5095780;28;20111;-70
2021/08/28 14:39:18;;;;;;;9.20;3.35;;;27.60;54.30;;;;;;5095153;28;20079;-70
2021/08/28 14:41:44;;;;;;;7.18;3.35;;;27.60;54.00;;;;;;5113337;28;20028;-70
2021/08/28 14:44:10;;;;;;;7.32;3.08;;;27.60;54.10;;;;;;5095084;28;20030;-69
2021/08/28 14:46:37;;;;;;;9.55;3.58;;;27.60;54.20;;;;;;5113548;28;20063;-71
2021/08/28 14:49:03;;;;;;;9.43;3.45;;;27.70;54.00;;;;;;5113185;28;20472;-70
2021/08/28 14:51:29;;;;;;;8.73;3.58;;;27.70;54.10;;;;;;5110044;28;20426;-70
2021/08/28 14:53:55;;;;;;;9.05;3.22;;;28.00;53.80;;;;;;5113409;28;20015;-70
2021/08/28 14:56:21;;;;;;;9.00;3.13;;;28.10;53.60;;;;;;5102787;28;20024;-71
2021/08/28 14:58:47;;;;;;;10.27;3.30;;;28.10;53.40;;;;;;5108339;28;20081;-68
2021/08/28 15:01:13;;;;;;;7.00;3.40;;;28.20;53.50;;;;;;5113289;28;20091;-70
2021/08/28 15:03:39;;;;;;;6.65;3.30;;;28.10;53.40;;;;;;5113534;28;20023;-71
2021/08/28 15:06:06;;;;;;;9.15;3.20;;;28.00;53.50;;;;;;5113013;28;20046;-71
2021/08/28 15:08:32;;;;;;;11.80;3.33;;;27.90;53.50;;;;;;5106754;28;20384;-73
2021/08/28 15:10:58;;;;;;;9.13;3.60;;;27.80;53.40;;;;;;5113246;28;20102;-71
2021/08/28 15:13:24;;;;;;;8.77;3.10;;;27.80;53.20;;;;;;5113504;28;20056;-71
2021/08/28 15:15:50;;;;;;;5.95;3.30;;;27.80;53.50;;;;;;5113366;28;20023;-69
2021/08/28 15:18:16;;;;;;;8.85;3.20;;;27.80;53.60;;;;;;5113070;28;20047;-71
2021/08/28 15:20:42;;;;;;;6.18;3.28;;;27.70;53.60;;;;;;5075147;28;20028;-71
2021/08/28 15:23:09;;;;;;;8.68;3.28;;;27.70;53.40;;;;;;5093181;28;20491;-71
2021/08/28 15:25:34;;;;;;;6.55;2.85;;;27.70;53.30;;;;;;5093957;28;20025;-71
2021/08/28 15:28:00;;;;;;;6.05;2.60;;;27.70;53.40;;;;;;5093755;28;20043;-72
2021/08/28 15:30:26;;;;;;;8.50;3.67;;;27.60;53.30;;;;;;5110323;28;20055;-70
2021/08/28 15:32:52;;;;;;;9.85;3.83;;;27.50;53.70;;;;;;5113993;28;20401;-71
2021/08/28 15:35:17;;;;;;;7.07;3.47;;;27.60;53.40;;;;;;5113424;28;20032;-69
2021/08/28 15:37:43;;;;;;;8.20;3.13;;;27.60;53.00;;;;;;5113038;28;20107;-71
2021/08/28 15:40:10;;;;;;;8.80;3.45;;;27.70;52.80;;;;;;5113166;28;20027;-70
2021/08/28 15:42:35;;;;;;;6.05;3.15;;;27.80;52.60;;;;;;5113737;28;20027;-74
2021/08/28 15:45:06;;;;;;;7.38;2.83;;;27.80;52.20;;;;;;5113546;28;20031;-72
2021/08/28 15:47:32;;;;;;;5.82;3.00;;;28.00;52.10;;;;;;5122399;28;20036;-71
2021/08/28 15:49:58;;;;;;;4.95;2.70;;;27.90;51.70;;;;;;5126190;28;20434;-70
2021/08/28 15:52:25;;;;;;;10.65;3.17;;;27.90;51.90;;;;;;5112332;28;20023;-70
2021/08/28 15:54:54;;;;;;;4.25;2.53;;;28.00;51.70;;;;;;5116675;28;20027;-70
2021/08/28 15:57:19;;;;;;;6.13;3.08;;;28.00;51.90;;;;;;5116712;28;20486;-70
2021/08/28 15:59:46;;;;;;;6.63;3.08;;;27.90;51.80;;;;;;5116344;28;20029;-71
2021/08/28 16:02:11;;;;;;;5.57;2.80;;;27.90;51.70;;;;;;5116874;28;20028;-71
2021/08/28 16:04:38;;;;;;;8.18;2.78;;;28.00;51.60;;;;;;5116790;28;20093;-71
2021/08/28 16:07:04;;;;;;;7.78;2.60;;;28.00;51.70;;;;;;5116577;28;20088;-71
2021/08/28 16:09:30;;;;;;;4.97;2.63;;;27.90;51.60;;;;;;5116767;28;20024;-68
2021/08/28 16:11:56;;;;;;;6.57;3.00;;;27.90;51.40;;;;;;5116517;28;20027;-71
2021/08/28 16:14:22;;;;;;;7.18;2.97;;;27.90;51.30;;;;;;5116672;28;20023;-72
2021/08/28 16:16:47;;;;;;;6.28;3.08;;;27.90;51.40;;;;;;5116535;28;20059;-71
2021/08/28 16:19:13;;;;;;;6.82;2.92;;;27.80;51.40;;;;;;5116206;28;20082;-70
2021/08/28 16:21:39;;;;;;;6.55;2.92;;;27.80;51.50;;;;;;5116067;28;20476;-69
2021/08/28 16:24:05;;;;;;;7.65;3.05;;;27.80;51.30;;;;;;5116025;28;20020;-70
2021/08/28 16:26:32;;;;;;;6.43;2.97;;;27.90;51.50;;;;;;5115928;28;20326;-71
2021/08/28 16:28:58;;;;;;;7.03;2.80;;;27.80;51.00;;;;;;5115978;28;20389;-70
2021/08/28 16:31:24;;;;;;;5.80;2.42;;;27.90;51.70;;;;;;5115925;28;20103;-70
2021/08/28 16:33:49;;;;;;;7.38;2.90;;;27.90;51.60;;;;;;5116305;28;20023;-70
2021/08/28 16:36:15;;;;;;;6.32;3.00;;;27.90;51.20;;;;;;5116146;28;20107;-71
2021/08/28 16:38:41;;;;;;;5.22;2.80;;;27.80;51.80;;;;;;5116087;28;20046;-71
2021/08/28 16:41:09;;;;;;;7.57;2.67;;;27.80;51.60;;;;;;5115432;28;20478;-70
2021/08/28 16:43:37;;;;;;;6.15;3.03;;;27.80;51.50;;;;;;5116027;28;20399;-72
2021/08/28 16:46:03;;;;;;;7.88;2.70;;;27.80;51.70;;;;;;5097512;28;20034;-72
2021/08/28 16:48:29;;;;;;;6.60;2.83;;;27.80;51.80;;;;;;5116024;28;20031;-72
2021/08/28 16:50:55;;;;;;;5.65;2.63;;;27.80;51.60;;;;;;5102059;28;20020;-71
2021/08/28 16:53:21;;;;;;;5.38;2.53;;;27.80;51.80;;;;;;5136167;28;20095;-70
2021/08/28 16:55:47;;;;;;;4.38;2.38;;;27.70;51.60;;;;;;5134994;28;20031;-73
2021/08/28 16:58:12;;;;;;;8.10;2.92;;;27.60;52.00;;;;;;5130195;28;20016;-73
2021/08/28 17:00:38;;;;;;;5.22;2.33;;;27.60;52.00;;;;;;5120143;28;20027;-70
2021/08/28 17:03:04;;;;;;;6.25;2.70;;;27.50;52.10;;;;;;5097065;28;20015;-72
2021/08/28 17:05:30;;;;;;;11.77;2.60;;;27.40;52.30;;;;;;5115420;28;20112;-70
2021/08/28 17:07:55;;;;;;;5.53;2.38;;;27.30;51.90;;;;;;5114856;28;20027;-69
2021/08/28 17:10:21;;;;;;;4.50;2.42;;;27.40;51.70;;;;;;5115495;28;20096;-70
2021/08/28 17:12:47;;;;;;;6.35;2.75;;;27.30;51.80;;;;;;5115807;28;20028;-70
2021/08/28 17:15:13;;;;;;;5.75;2.30;;;27.30;51.80;;;;;;5115120;28;20368;-70
2021/08/28 17:17:38;;;;;;;5.10;2.40;;;27.20;51.80;;;;;;5114499;28;20122;-69
2021/08/28 17:20:05;;;;;;;5.22;2.45;;;27.20;51.70;;;;;;5115185;28;20035;-69
2021/08/28 17:22:30;;;;;;;5.63;2.38;;;27.20;51.70;;;;;;5115739;28;20175;-72
2021/08/28 17:24:56;;;;;;;6.43;2.33;;;27.10;51.80;;;;;;5114707;28;20474;-72
2021/08/28 17:27:21;;;;;;;5.53;2.20;;;27.10;51.70;;;;;;5115317;28;20035;-68
2021/08/28 17:29:47;;;;;;;5.93;2.50;;;27.10;51.60;;;;;;5115326;28;20027;-70
2021/08/28 17:32:13;;;;;;;5.35;2.40;;;27.10;51.40;;;;;;5115337;28;20099;-69
2021/08/28 17:34:39;;;;;;;6.18;2.50;;;27.10;51.30;;;;;;5114637;28;20064;-71
2021/08/28 17:37:04;;;;;;;6.80;3.00;;;27.00;51.50;;;;;;5114798;28;20077;-71
2021/08/28 17:39:30;;;;;;;7.85;2.72;;;27.00;51.50;;;;;;5114766;28;20042;-70
2021/08/28 17:41:56;;;;;;;6.93;2.40;;;27.10;51.40;;;;;;5114798;28;20102;-71
2021/08/28 17:44:22;;;;;;;4.75;2.47;;;27.00;51.40;;;;;;5114719;28;20366;-71
2021/08/28 17:46:48;;;;;;;6.10;2.50;;;27.00;51.50;;;;;;5114760;28;20046;-71
2021/08/28 17:49:14;;;;;;;6.72;2.85;;;27.00;51.70;;;;;;5114788;28;20024;-69
2021/08/28 17:51:39;;;;;;;6.45;2.42;;;26.90;51.80;;;;;;5114567;28;20033;-70
2021/08/28 17:54:07;;;;;;;5.78;2.05;;;26.90;51.70;;;;;;5114433;28;20027;-71
2021/08/28 17:56:33;;;;;;;6.40;2.47;;;26.80;51.70;;;;;;5114392;28;20038;-71
2021/08/28 17:58:59;;;;;;;5.45;2.63;;;26.80;51.90;;;;;;5114953;28;20099;-72
2021/08/28 18:01:25;;;;;;;6.47;2.22;;;26.80;52.00;;;;;;5096320;28;20027;-70
2021/08/28 18:03:50;;;;;;;4.38;1.98;;;26.70;52.10;;;;;;5114700;28;20059;-72
2021/08/28 18:06:16;;;;;;;8.02;2.85;;;26.60;52.00;;;;;;5114069;28;20024;-71
2021/08/28 18:08:42;;;;;;;5.03;2.35;;;26.60;51.80;;;;;;5114531;28;20034;-70
2021/08/28 18:11:08;;;;;;;5.70;2.40;;;26.50;51.90;;;;;;5114248;28;20028;-73
2021/08/28 18:13:34;;;;;;;5.32;2.20;;;26.50;51.70;;;;;;5114369;28;20058;-72
2021/08/28 18:16:02;;;;;;;7.20;2.83;;;26.50;52.10;;;;;;5113619;28;20023;-72
2021/08/28 18:18:28;;;;;;;7.35;2.78;;;26.50;52.40;;;;;;5114250;28;20073;-72
2021/08/28 18:20:54;;;;;;;4.93;2.78;;;26.40;52.30;;;;;;5113915;28;20024;-72
2021/08/28 18:23:19;;;;;;;4.82;2.38;;;26.40;52.00;;;;;;5095682;28;20020;-71
2021/08/28 18:25:45;;;;;;;6.82;2.53;;;26.50;52.30;;;;;;5113612;28;20023;-72
2021/08/28 18:28:12;;;;;;;9.75;2.80;;;26.40;52.00;;;;;;5114411;28;20540;-73
2021/08/28 18:30:39;;;;;;;4.20;2.10;;;26.40;52.70;;;;;;5118058;27;20027;-71
2021/08/28 18:33:06;;;;;;;5.75;2.20;;;26.30;51.80;;;;;;5121296;27;20064;-72
2021/08/28 18:35:34;;;;;;;8.25;2.50;;;26.40;52.40;;;;;;5114151;28;20035;-73
2021/08/28 18:38:00;;;;;;;5.32;2.30;;;26.30;53.00;;;;;;5095504;28;20028;-76
2021/08/28 18:40:27;;;;;;;6.03;2.65;;;26.30;52.20;;;;;;5116583;28;20106;-71
2021/08/28 18:42:53;;;;;;;5.57;2.80;;;26.20;53.20;;;;;;5121427;28;20024;-75
2021/08/28 18:45:19;;;;;;;4.03;2.22;;;26.20;52.80;;;;;;5116406;28;20039;-68
2021/08/28 18:47:45;;;;;;;5.95;2.10;;;26.10;53.30;;;;;;5115380;28;20043;-68
2021/08/28 18:50:11;;;;;;;5.72;2.80;;;26.00;53.20;;;;;;5113709;28;20028;-70
2021/08/28 18:52:37;;;;;;;5.70;2.67;;;25.90;53.20;;;;;;5113306;28;20027;-69
2021/08/28 18:55:05;;;;;;;4.05;1.88;;;25.90;53.40;;;;;;5113779;28;20024;-72
2021/08/28 18:57:32;;;;;;;4.65;2.00;;;25.80;53.60;;;;;;5113579;28;20042;-70
2021/08/28 18:59:58;;;;;;;6.57;2.53;;;25.70;53.90;;;;;;5113869;28;20023;-72
2021/08/28 19:02:23;;;;;;;4.28;2.13;;;25.70;53.80;;;;;;5113611;28;20034;-71
2021/08/28 19:04:49;;;;;;;4.38;1.98;;;25.60;53.00;;;;;;5113627;28;20440;-71
2021/08/28 19:07:15;;;;;;;5.50;2.30;;;25.50;53.80;;;;;;5113025;28;20039;-71
2021/08/28 19:09:41;;;;;;;4.53;2.00;;;25.40;53.90;;;;;;5113567;28;20023;-73
2021/08/28 19:12:07;;;;;;;4.68;2.38;;;25.30;52.60;;;;;;5113572;28;20047;-71
2021/08/28 19:14:34;;;;;;;4.65;2.00;;;25.30;53.50;;;;;;5113008;28;20027;-71
2021/08/28 19:17:00;;;;;;;4.28;2.30;;;25.20;52.60;;;;;;5112592;28;20031;-71
2021/08/28 19:19:26;;;;;;;5.50;2.20;;;25.10;53.00;;;;;;5110239;28;20035;-72
2021/08/28 19:21:51;;;;;;;5.50;2.53;;;25.10;54.60;;;;;;5112956;28;20065;-70
2021/08/28 19:24:17;;;;;;;4.78;2.30;;;25.00;54.50;;;;;;5113410;28;20039;-72
2021/08/28 19:26:43;;;;;;;6.60;2.42;;;25.00;54.90;;;;;;5113038;28;20464;-74
2021/08/28 19:29:09;;;;;;;4.18;2.20;;;24.90;54.70;;;;;;5116727;28;20023;-74
2021/08/28 19:31:35;;;;;;;4.55;2.25;;;24.90;54.90;;;;;;5117220;28;20027;-74
2021/08/28 19:34:00;;;;;;;5.45;1.92;;;24.80;55.10;;;;;;5117170;28;20535;-72
2021/08/28 19:36:26;;;;;;;5.82;2.03;;;24.80;54.20;;;;;;5117488;28;20468;-71
2021/08/28 19:38:52;;;;;;;4.72;2.10;;;24.80;54.10;;;;;;5117043;28;20441;-71
2021/08/28 19:41:19;;;;;;;3.75;2.13;;;24.80;54.30;;;;;;5117457;28;20107;-71
2021/08/28 19:43:44;;;;;;;5.38;2.58;;;24.80;54.90;;;;;;5117414;28;20027;-70
2021/08/28 19:46:10;;;;;;;4.13;1.73;;;24.70;54.70;;;;;;5106801;28;20384;-70
2021/08/28 19:48:36;;;;;;;4.13;1.90;;;24.70;55.00;;;;;;5108926;28;20028;-77
2021/08/28 19:51:04;;;;;;;3.90;2.22;;;24.50;53.90;;;;;;5117459;28;20027;-75
2021/08/28 19:53:30;;;;;;;4.68;2.80;;;24.50;53.90;;;;;;5117247;28;20046;-75
2021/08/28 19:55:57;;;;;;;4.28;2.30;;;24.50;55.20;;;;;;5098637;28;20020;-70
2021/08/28 19:58:26;;;;;;;4.90;2.38;;;24.50;55.30;;;;;;5116248;28;20040;-67
2021/08/28 20:00:53;;;;;;;5.25;2.25;;;24.60;55.10;;;;;;5116636;28;20092;-68
2021/08/28 20:03:19;;;;;;;4.63;2.53;;;24.60;55.90;;;;;;5098312;28;20034;-67
2021/08/28 20:05:45;;;;;;;4.97;2.00;;;24.50;55.30;;;;;;5116355;28;20028;-67
2021/08/28 20:08:11;;;;;;;4.05;2.25;;;24.40;55.30;;;;;;5111381;27;20099;-68
2021/08/28 20:10:37;;;;;;;4.60;2.03;;;24.40;55.50;;;;;;5132178;27;20056;-67
2021/08/28 20:13:04;;;;;;;6.55;2.47;;;24.40;55.40;;;;;;5122414;27;20163;-68
2021/08/28 20:15:32;;;;;;;3.88;2.20;;;24.40;55.50;;;;;;5115430;27;20019;-67
2021/08/28 20:17:57;;;;;;;5.00;2.00;;;24.40;55.40;;;;;;5107270;27;20067;-68
2021/08/28 20:20:23;;;;;;;4.88;2.00;;;24.40;55.50;;;;;;5105970;28;20032;-69
2021/08/28 20:22:49;;;;;;;5.05;2.45;;;24.40;55.40;;;;;;5105148;28;20016;-69
2021/08/28 20:25:16;;;;;;;3.75;1.90;;;24.40;55.00;;;;;;5104762;28;20028;-68
2021/08/28 20:27:42;;;;;;;3.70;2.00;;;24.30;54.90;;;;;;5105816;28;20031;-69
2021/08/28 20:30:09;;;;;;;4.18;1.95;;;24.20;55.30;;;;;;5086789;28;20039;-69
2021/08/28 20:32:34;;;;;;;5.78;2.13;;;24.20;55.40;;;;;;5110737;27;20047;-70
2021/08/28 20:35:01;;;;;;;3.85;1.98;;;24.10;55.40;;;;;;5120965;27;20124;-68
2021/08/28 20:37:27;;;;;;;4.82;2.17;;;24.10;55.50;;;;;;5124772;27;20011;-67
2021/08/28 20:39:53;;;;;;;6.03;2.05;;;24.10;55.90;;;;;;5126807;27;20027;-70
2021/08/28 20:42:19;;;;;;;4.90;2.22;;;24.00;55.60;;;;;;5112249;27;20015;-71
2021/08/28 20:44:45;;;;;;;4.82;2.00;;;24.00;55.20;;;;;;5122845;27;20031;-68
2021/08/28 20:47:11;;;;;;;5.10;2.42;;;24.10;55.40;;;;;;5106603;27;20050;-67
2021/08/28 20:49:37;;;;;;;5.57;2.20;;;24.20;55.70;;;;;;5099055;27;20020;-67
2021/08/28 20:52:04;;;;;;;5.43;2.08;;;24.30;55.80;;;;;;5114588;27;20070;-71
2021/08/28 20:54:31;;;;;;;6.47;2.40;;;24.30;55.50;;;;;;5123399;27;20445;-70
2021/08/28 20:56:57;;;;;;;5.60;2.13;;;24.30;54.70;;;;;;5122797;27;20023;-69
2021/08/28 20:59:24;;;;;;;4.57;2.42;;;24.30;54.60;;;;;;5115330;28;20026;-69
2021/08/28 21:01:50;;;;;;;3.97;2.20;;;24.20;54.90;;;;;;5115256;28;20038;-69
2021/08/28 21:04:15;;;;;;;4.25;2.22;;;24.20;54.60;;;;;;5115762;28;20080;-69
2021/08/28 21:06:41;;;;;;;4.78;2.22;;;24.10;55.20;;;;;;5115770;28;20038;-68
2021/08/28 21:09:07;;;;;;;6.00;2.03;;;24.10;55.80;;;;;;5115489;28;20382;-69
2021/08/28 21:11:34;;;;;;;4.03;2.13;;;24.00;55.60;;;;;;5099648;28;20426;-68
2021/08/28 21:14:00;;;;;;;7.47;2.20;;;24.00;55.90;;;;;;5105254;27;20040;-67
2021/08/28 21:16:26;;;;;;;3.20;1.60;;;24.00;55.50;;;;;;5126806;27;20023;-68
2021/08/28 21:18:51;;;;;;;3.58;2.00;;;23.90;55.50;;;;;;5135722;27;20055;-69
2021/08/28 21:21:17;;;;;;;3.05;1.75;;;23.80;55.30;;;;;;5114726;27;20056;-69
2021/08/28 21:23:44;;;;;;;5.43;2.20;;;23.80;55.50;;;;;;5104171;27;20051;-69
2021/08/28 21:26:10;;;;;;;3.00;1.85;;;23.70;55.60;;;;;;5125435;27;20043;-67
2021/08/28 21:28:36;;;;;;;4.93;2.53;;;23.70;55.80;;;;;;5113335;28;20488;-71
2021/08/28 21:31:02;;;;;;;3.83;2.25;;;23.70;55.60;;;;;;5120422;27;20098;-69
2021/08/28 21:33:28;;;;;;;7.25;2.30;;;23.80;55.60;;;;;;5119575;27;20073;-67
2021/08/28 21:35:54;;;;;;;4.25;2.17;;;23.80;55.50;;;;;;5110293;28;20031;-70
2021/08/28 21:38:20;;;;;;;3.63;1.98;;;23.80;55.50;;;;;;5112306;27;20073;-69
2021/08/28 21:40:46;;;;;;;3.92;1.80;;;23.70;55.40;;;;;;5122848;27;20038;-69
2021/08/28 21:43:12;;;;;;;3.30;1.80;;;23.70;55.50;;;;;;5130213;27;20014;-71
2021/08/28 21:45:38;;;;;;;3.85;2.10;;;23.70;55.50;;;;;;5112205;28;20031;-68
2021/08/28 21:48:04;;;;;;;4.55;1.83;;;23.70;55.50;;;;;;5114847;28;20061;-69
2021/08/28 21:50:30;;;;;;;4.68;2.03;;;23.70;55.00;;;;;;5113703;28;20028;-68
2021/08/28 21:52:56;;;;;;;3.63;1.80;;;23.70;55.10;;;;;;5114461;28;20522;-69
2021/08/28 21:55:22;;;;;;;3.95;2.05;;;23.80;55.00;;;;;;5097802;28;20032;-73
2021/08/28 21:57:48;;;;;;;5.13;1.83;;;23.80;55.00;;;;;;5107462;28;20080;-72
2021/08/28 22:00:23;;;;;;;3.83;1.70;;;23.70;54.50;;;;;;5114478;28;20526;-71
2021/08/28 22:02:49;;;;;;;4.22;2.03;;;23.70;54.20;;;;;;5114531;28;20477;-71
2021/08/28 22:05:15;;;;;;;4.53;2.08;;;23.60;54.60;;;;;;5101437;28;20062;-72
2021/08/28 22:07:41;;;;;;;2.65;1.67;;;23.60;54.60;;;;;;5094231;28;20040;-71
2021/08/28 22:10:07;;;;;;;4.82;1.70;;;23.50;53.70;;;;;;5094105;28;20095;-71
2021/08/28 22:12:33;;;;;;;4.72;1.90;;;23.50;54.00;;;;;;5094435;28;20036;-71
2021/08/28 22:14:58;;;;;;;3.28;1.90;;;23.50;54.10;;;;;;5101260;28;20031;-73
2021/08/28 22:17:24;;;;;;;3.72;2.03;;;23.50;54.10;;;;;;5114642;28;20036;-71
2021/08/28 22:19:51;;;;;;;6.20;2.25;;;23.50;54.80;;;;;;5114446;28;20022;-71
2021/08/28 22:22:17;;;;;;;3.13;1.80;;;23.50;54.80;;;;;;5114213;28;20059;-70
2021/08/28 22:24:43;;;;;;;3.53;1.67;;;23.50;54.10;;;;;;5108360;28;20078;-69
2021/08/28 22:27:08;;;;;;;5.38;2.15;;;23.40;53.80;;;;;;5093939;28;20040;-68
2021/08/28 22:29:34;;;;;;;3.53;1.80;;;23.30;53.80;;;;;;5093577;28;20051;-68
2021/08/28 22:32:00;;;;;;;3.80;1.80;;;23.30;53.80;;;;;;5093553;28;20464;-67
2021/08/28 22:34:26;;;;;;;2.65;1.48;;;23.20;53.90;;;;;;5093685;28;20039;-69
2021/08/28 22:36:51;;;;;;;3.35;1.90;;;23.20;54.10;;;;;;5113861;28;20418;-69
2021/08/28 22:39:17;;;;;;;3.15;1.73;;;23.20;54.30;;;;;;5113614;28;20020;-68
2021/08/28 22:41:43;;;;;;;4.13;2.08;;;23.20;54.20;;;;;;5113752;28;20027;-68
2021/08/28 22:44:09;;;;;;;3.40;1.80;;;23.20;54.20;;;;;;5113776;28;20027;-68
2021/08/28 22:46:35;;;;;;;3.58;1.83;;;23.20;53.90;;;;;;5098302;28;20148;-68
2021/08/28 22:49:03;;;;;;;5.82;1.92;;;23.10;54.00;;;;;;5093346;28;20020;-68
2021/08/28 22:51:28;;;;;;;3.88;1.60;;;23.10;53.70;;;;;;5093080;28;20419;-69
2021/08/28 22:53:54;;;;;;;3.67;1.90;;;23.00;54.10;;;;;;5109204;28;20046;-69
2021/08/28 22:56:20;;;;;;;3.53;1.70;;;23.00;54.00;;;;;;5102725;28;20093;-69
2021/08/28 22:58:45;;;;;;;3.13;1.70;;;23.00;53.80;;;;;;5093131;28;20028;-69
2021/08/28 23:01:11;;;;;;;3.78;1.80;;;23.00;53.70;;;;;;5092895;28;20024;-69
2021/08/28 23:03:37;;;;;;;4.00;1.70;;;22.90;54.10;;;;;;5093342;28;20077;-68
2021/08/28 23:06:03;;;;;;;4.20;1.92;;;22.80;54.10;;;;;;5104395;28;20031;-68
2021/08/28 23:08:28;;;;;;;4.65;1.90;;;22.80;54.10;;;;;;5093406;28;20091;-68
2021/08/28 23:10:54;;;;;;;5.43;2.20;;;22.80;54.20;;;;;;5093583;28;20044;-71
2021/08/28 23:13:21;;;;;;;4.50;2.20;;;22.80;54.10;;;;;;5093121;28;20457;-70
2021/08/28 23:15:47;;;;;;;3.15;1.80;;;22.90;54.00;;;;;;5092803;28;20024;-68
2021/08/28 23:18:13;;;;;;;3.83;2.00;;;22.90;53.90;;;;;;5112889;28;20109;-68
2021/08/28 23:20:38;;;;;;;6.68;1.70;;;22.90;53.90;;;;;;5113177;28;20072;-67
2021/08/28 23:23:04;;;;;;;3.55;1.55;;;22.90;53.40;;;;;;5113408;28;20102;-67
2021/08/28 23:25:30;;;;;;;4.03;1.90;;;22.90;53.50;;;;;;5113413;28;20016;-67
2021/08/28 23:27:56;;;;;;;2.95;1.67;;;22.90;53.30;;;;;;5097825;28;20036;-71
2021/08/28 23:30:22;;;;;;;3.85;1.98;;;22.70;53.60;;;;;;5092901;28;20470;-68
2021/08/28 23:32:47;;;;;;;4.90;2.03;;;22.70;53.50;;;;;;5093054;28;20074;-68
2021/08/28 23:35:13;;;;;;;3.40;1.75;;;22.70;53.10;;;;;;5092819;28;20074;-70
2021/08/28 23:37:40;;;;;;;3.78;1.80;;;22.70;53.00;;;;;;5102634;28;20023;-69
2021/08/28 23:40:07;;;;;;;4.25;1.95;;;22.70;53.40;;;;;;5113079;28;20024;-69
2021/08/28 23:42:33;;;;;;;3.67;1.90;;;22.70;52.70;;;;;;5113308;28;20117;-68
2021/08/28 23:44:58;;;;;;;2.55;1.40;;;22.60;53.20;;;;;;5113080;28;20016;-69
2021/08/28 23:47:24;;;;;;;3.20;1.73;;;22.60;53.40;;;;;;5107697;28;20127;-70
2021/08/28 23:49:50;;;;;;;3.20;1.60;;;22.60;53.30;;;;;;5092428;28;20016;-69
2021/08/28 23:52:16;;;;;;;3.15;1.63;;;22.60;53.40;;;;;;5092985;28;20043;-69
2021/08/28 23:54:42;;;;;;;3.35;1.65;;;22.60;53.40;;;;;;5098270;28;20499;-69
2021/08/28 23:57:08;;;;;;;4.15;1.80;;;22.70;53.10;;;;;;5112690;28;20059;-69
2021/08/28 23:59:34;;;;;;;4.57;1.77;;;22.70;53.00;;;;;;5092955;28;20101;-70
